sensor_id;sensor_type;location;lat;lon;timestamp;temperature;humidity
19945;DHT22;10134;50.952;6.930;2022-07-03T00:02:09;23.40;73.20
19945;DHT22;10134;50.952;6.930;2022-07-03T00:04:36;23.40;73.30
19945;DHT22;10134;50.952;6.930;2022-07-03T00:07:03;23.30;73.20
19945;DHT22;10134;50.952;6.930;2022-07-03T00:09:31;23.30;73.30
19945;DHT22;10134;50.952;6.930;2022-07-03T00:11:58;23.30;73.60
19945;DHT22;10134;50.952;6.930;2022-07-03T00:14:25;23.20;73.50
19945;DHT22;10134;50.952;6.930;2022-07-03T00:16:53;23.20;73.70
19945;DHT22;10134;50.952;6.930;2022-07-03T00:19:20;23.20;73.70
19945;DHT22;10134;50.952;6.930;2022-07-03T00:21:55;23.20;73.90
19945;DHT22;10134;50.952;6.930;2022-07-03T00:24:35;23.20;74.20
19945;DHT22;10134;50.952;6.930;2022-07-03T00:27:09;23.20;74.10
19945;DHT22;10134;50.952;6.930;2022-07-03T00:29:40;23.20;74.40
19945;DHT22;10134;50.952;6.930;2022-07-03T00:32:13;23.10;74.40
19945;DHT22;10134;50.952;6.930;2022-07-03T00:34:41;23.10;74.60
19945;DHT22;10134;50.952;6.930;2022-07-03T00:37:11;23.10;74.90
19945;DHT22;10134;50.952;6.930;2022-07-03T00:39:41;23.10;75.10
19945;DHT22;10134;50.952;6.930;2022-07-03T00:42:10;23.10;75.30
19945;DHT22;10134;50.952;6.930;2022-07-03T00:44:49;23.00;75.30
19945;DHT22;10134;50.952;6.930;2022-07-03T00:47:20;23.00;75.60
19945;DHT22;10134;50.952;6.930;2022-07-03T00:49:50;23.00;75.70
19945;DHT22;10134;50.952;6.930;2022-07-03T00:52:19;23.00;75.80
19945;DHT22;10134;50.952;6.930;2022-07-03T00:54:55;23.00;75.90
19945;DHT22;10134;50.952;6.930;2022-07-03T00:57:24;22.90;75.90
19945;DHT22;10134;50.952;6.930;2022-07-03T00:59:52;22.90;76.10
19945;DHT22;10134;50.952;6.930;2022-07-03T01:03:02;22.90;76.20
19945;DHT22;10134;50.952;6.930;2022-07-03T01:05:36;22.90;76.60
19945;DHT22;10134;50.952;6.930;2022-07-03T01:11:10;22.90;76.50
19945;DHT22;10134;50.952;6.930;2022-07-03T01:19:44;22.80;76.70
19945;DHT22;10134;50.952;6.930;2022-07-03T01:30:55;22.70;77.20
19945;DHT22;10134;50.952;6.930;2022-07-03T01:33:26;22.70;77.30
19945;DHT22;10134;50.952;6.930;2022-07-03T01:38:31;22.70;77.70
19945;DHT22;10134;50.952;6.930;2022-07-03T01:40:59;22.60;77.80
19945;DHT22;10134;50.952;6.930;2022-07-03T01:43:45;22.60;78.00
19945;DHT22;10134;50.952;6.930;2022-07-03T01:46:16;22.60;78.40
19945;DHT22;10134;50.952;6.930;2022-07-03T01:48:45;22.60;78.60
19945;DHT22;10134;50.952;6.930;2022-07-03T01:51:13;22.60;78.80
19945;DHT22;10134;50.952;6.930;2022-07-03T01:53:47;22.50;78.70
19945;DHT22;10134;50.952;6.930;2022-07-03T01:56:15;22.50;78.80
19945;DHT22;10134;50.952;6.930;2022-07-03T01:58:43;22.50;78.80
19945;DHT22;10134;50.952;6.930;2022-07-03T02:01:20;22.50;79.10
19945;DHT22;10134;50.952;6.930;2022-07-03T02:04:04;22.50;79.30
19945;DHT22;10134;50.952;6.930;2022-07-03T02:09:46;22.40;79.30
19945;DHT22;10134;50.952;6.930;2022-07-03T02:12:18;22.40;79.50
19945;DHT22;10134;50.952;6.930;2022-07-03T02:15:03;22.40;79.60
19945;DHT22;10134;50.952;6.930;2022-07-03T02:17:43;22.40;79.80
19945;DHT22;10134;50.952;6.930;2022-07-03T02:20:13;22.40;79.90
19945;DHT22;10134;50.952;6.930;2022-07-03T02:22:52;22.40;80.10
19945;DHT22;10134;50.952;6.930;2022-07-03T02:25:26;22.30;80.10
19945;DHT22;10134;50.952;6.930;2022-07-03T02:28:17;22.30;81.10
19945;DHT22;10134;50.952;6.930;2022-07-03T02:30:55;22.30;80.60
19945;DHT22;10134;50.952;6.930;2022-07-03T02:33:30;22.20;80.70
19945;DHT22;10134;50.952;6.930;2022-07-03T02:35:58;22.20;80.90
19945;DHT22;10134;50.952;6.930;2022-07-03T02:38:27;22.20;81.00
19945;DHT22;10134;50.952;6.930;2022-07-03T02:43:38;22.20;81.30
19945;DHT22;10134;50.952;6.930;2022-07-03T02:49:11;22.10;81.70
19945;DHT22;10134;50.952;6.930;2022-07-03T02:51:48;22.10;81.90
19945;DHT22;10134;50.952;6.930;2022-07-03T02:54:17;22.10;82.00
19945;DHT22;10134;50.952;6.930;2022-07-03T02:57:06;22.10;82.10
19945;DHT22;10134;50.952;6.930;2022-07-03T02:59:45;22.00;82.10
19945;DHT22;10134;50.952;6.930;2022-07-03T03:02:19;22.00;82.40
19945;DHT22;10134;50.952;6.930;2022-07-03T03:08:22;22.00;82.80
19945;DHT22;10134;50.952;6.930;2022-07-03T03:10:22;21.90;83.00
19945;DHT22;10134;50.952;6.930;2022-07-03T03:12:58;21.90;83.20
19945;DHT22;10134;50.952;6.930;2022-07-03T03:15:30;21.90;83.40
19945;DHT22;10134;50.952;6.930;2022-07-03T03:18:06;21.90;83.50
19945;DHT22;10134;50.952;6.930;2022-07-03T03:20:38;21.90;83.60
19945;DHT22;10134;50.952;6.930;2022-07-03T03:26:03;21.80;83.80
19945;DHT22;10134;50.952;6.930;2022-07-03T03:28:31;21.80;83.90
19945;DHT22;10134;50.952;6.930;2022-07-03T03:30:58;21.70;84.00
19945;DHT22;10134;50.952;6.930;2022-07-03T03:33:26;21.70;84.20
19945;DHT22;10134;50.952;6.930;2022-07-03T03:35:54;21.70;84.30
19945;DHT22;10134;50.952;6.930;2022-07-03T03:38:21;21.70;84.50
19945;DHT22;10134;50.952;6.930;2022-07-03T03:40:49;21.70;84.50
19945;DHT22;10134;50.952;6.930;2022-07-03T03:43:17;21.60;85.20
19945;DHT22;10134;50.952;6.930;2022-07-03T03:45:44;21.60;84.80
19945;DHT22;10134;50.952;6.930;2022-07-03T03:48:11;21.60;84.90
19945;DHT22;10134;50.952;6.930;2022-07-03T03:50:38;21.60;85.20
19945;DHT22;10134;50.952;6.930;2022-07-03T03:53:11;21.60;86.20
19945;DHT22;10134;50.952;6.930;2022-07-03T03:55:53;21.50;85.60
19945;DHT22;10134;50.952;6.930;2022-07-03T03:58:21;21.50;85.90
19945;DHT22;10134;50.952;6.930;2022-07-03T04:00:48;21.50;86.00
19945;DHT22;10134;50.952;6.930;2022-07-03T04:03:15;21.50;86.10
19945;DHT22;10134;50.952;6.930;2022-07-03T04:05:43;21.50;86.00
19945;DHT22;10134;50.952;6.930;2022-07-03T04:08:10;21.50;86.00
19945;DHT22;10134;50.952;6.930;2022-07-03T04:10:37;21.50;86.00
19945;DHT22;10134;50.952;6.930;2022-07-03T04:13:04;21.40;86.00
19945;DHT22;10134;50.952;6.930;2022-07-03T04:15:32;21.40;86.30
19945;DHT22;10134;50.952;6.930;2022-07-03T04:17:59;21.40;86.40
19945;DHT22;10134;50.952;6.930;2022-07-03T04:20:26;21.40;86.50
19945;DHT22;10134;50.952;6.930;2022-07-03T04:22:54;21.40;86.70
19945;DHT22;10134;50.952;6.930;2022-07-03T04:25:21;21.40;86.90
19945;DHT22;10134;50.952;6.930;2022-07-03T04:27:48;21.40;87.00
19945;DHT22;10134;50.952;6.930;2022-07-03T04:30:35;21.40;87.80
19945;DHT22;10134;50.952;6.930;2022-07-03T04:33:03;21.40;87.30
19945;DHT22;10134;50.952;6.930;2022-07-03T04:35:30;21.40;87.30
19945;DHT22;10134;50.952;6.930;2022-07-03T04:37:58;21.40;87.30
19945;DHT22;10134;50.952;6.930;2022-07-03T04:40:25;21.30;87.30
19945;DHT22;10134;50.952;6.930;2022-07-03T04:42:52;21.30;87.40
19945;DHT22;10134;50.952;6.930;2022-07-03T04:45:19;21.30;87.60
19945;DHT22;10134;50.952;6.930;2022-07-03T04:47:47;21.30;87.70
19945;DHT22;10134;50.952;6.930;2022-07-03T04:50:14;21.30;88.00
19945;DHT22;10134;50.952;6.930;2022-07-03T04:52:41;21.40;88.10
19945;DHT22;10134;50.952;6.930;2022-07-03T04:55:08;21.40;88.30
19945;DHT22;10134;50.952;6.930;2022-07-03T04:57:37;21.40;88.50
19945;DHT22;10134;50.952;6.930;2022-07-03T05:00:05;21.40;88.70
19945;DHT22;10134;50.952;6.930;2022-07-03T05:02:33;21.40;88.90
19945;DHT22;10134;50.952;6.930;2022-07-03T05:05:00;21.40;89.10
19945;DHT22;10134;50.952;6.930;2022-07-03T05:07:28;21.40;89.30
19945;DHT22;10134;50.952;6.930;2022-07-03T05:09:55;21.40;89.20
19945;DHT22;10134;50.952;6.930;2022-07-03T05:12:23;21.40;89.20
19945;DHT22;10134;50.952;6.930;2022-07-03T05:14:50;21.40;88.90
19945;DHT22;10134;50.952;6.930;2022-07-03T05:17:18;21.40;88.90
19945;DHT22;10134;50.952;6.930;2022-07-03T05:19:45;21.40;89.10
19945;DHT22;10134;50.952;6.930;2022-07-03T05:22:13;21.50;89.40
19945;DHT22;10134;50.952;6.930;2022-07-03T05:24:41;21.50;89.40
19945;DHT22;10134;50.952;6.930;2022-07-03T05:27:08;21.40;89.30
19945;DHT22;10134;50.952;6.930;2022-07-03T05:29:35;21.40;89.20
19945;DHT22;10134;50.952;6.930;2022-07-03T05:32:06;21.50;89.00
19945;DHT22;10134;50.952;6.930;2022-07-03T05:34:33;21.40;88.80
19945;DHT22;10134;50.952;6.930;2022-07-03T05:37:01;21.50;88.90
19945;DHT22;10134;50.952;6.930;2022-07-03T05:39:28;21.50;88.70
19945;DHT22;10134;50.952;6.930;2022-07-03T05:42:02;21.50;88.70
19945;DHT22;10134;50.952;6.930;2022-07-03T05:44:29;21.50;88.70
19945;DHT22;10134;50.952;6.930;2022-07-03T05:46:56;21.50;88.70
19945;DHT22;10134;50.952;6.930;2022-07-03T05:49:24;21.50;89.10
19945;DHT22;10134;50.952;6.930;2022-07-03T05:51:51;21.50;88.60
19945;DHT22;10134;50.952;6.930;2022-07-03T05:54:18;21.50;88.80
19945;DHT22;10134;50.952;6.930;2022-07-03T05:56:45;21.60;88.80
19945;DHT22;10134;50.952;6.930;2022-07-03T05:59:13;21.60;88.60
19945;DHT22;10134;50.952;6.930;2022-07-03T06:01:40;21.60;88.60
19945;DHT22;10134;50.952;6.930;2022-07-03T06:04:07;21.60;88.60
19945;DHT22;10134;50.952;6.930;2022-07-03T06:06:35;21.60;88.50
19945;DHT22;10134;50.952;6.930;2022-07-03T06:09:03;21.70;88.50
19945;DHT22;10134;50.952;6.930;2022-07-03T06:11:30;21.70;88.50
19945;DHT22;10134;50.952;6.930;2022-07-03T06:13:57;21.70;88.20
19945;DHT22;10134;50.952;6.930;2022-07-03T06:16:25;21.70;88.20
19945;DHT22;10134;50.952;6.930;2022-07-03T06:18:52;21.70;88.30
19945;DHT22;10134;50.952;6.930;2022-07-03T06:21:19;21.70;88.30
19945;DHT22;10134;50.952;6.930;2022-07-03T06:23:46;21.80;89.00
19945;DHT22;10134;50.952;6.930;2022-07-03T06:26:14;21.80;88.30
19945;DHT22;10134;50.952;6.930;2022-07-03T06:28:42;21.80;88.20
19945;DHT22;10134;50.952;6.930;2022-07-03T06:31:10;21.80;88.20
19945;DHT22;10134;50.952;6.930;2022-07-03T06:33:38;21.90;88.30
19945;DHT22;10134;50.952;6.930;2022-07-03T06:36:05;21.90;88.30
19945;DHT22;10134;50.952;6.930;2022-07-03T06:38:32;21.90;88.20
19945;DHT22;10134;50.952;6.930;2022-07-03T06:41:00;21.90;88.10
19945;DHT22;10134;50.952;6.930;2022-07-03T06:43:27;21.90;88.00
19945;DHT22;10134;50.952;6.930;2022-07-03T06:45:54;21.90;88.10
19945;DHT22;10134;50.952;6.930;2022-07-03T06:48:22;22.00;88.20
19945;DHT22;10134;50.952;6.930;2022-07-03T06:50:49;22.00;88.30
19945;DHT22;10134;50.952;6.930;2022-07-03T06:53:16;22.00;88.30
19945;DHT22;10134;50.952;6.930;2022-07-03T06:55:44;22.00;88.20
19945;DHT22;10134;50.952;6.930;2022-07-03T06:58:11;22.10;88.20
19945;DHT22;10134;50.952;6.930;2022-07-03T07:00:38;22.10;87.90
19945;DHT22;10134;50.952;6.930;2022-07-03T07:03:06;22.10;87.60
19945;DHT22;10134;50.952;6.930;2022-07-03T07:05:33;22.10;87.30
19945;DHT22;10134;50.952;6.930;2022-07-03T07:08:00;22.10;87.20
19945;DHT22;10134;50.952;6.930;2022-07-03T07:10:27;22.10;87.30
19945;DHT22;10134;50.952;6.930;2022-07-03T07:12:55;22.20;87.40
19945;DHT22;10134;50.952;6.930;2022-07-03T07:15:22;22.20;87.50
19945;DHT22;10134;50.952;6.930;2022-07-03T07:17:49;22.20;87.40
19945;DHT22;10134;50.952;6.930;2022-07-03T07:20:17;22.20;87.30
19945;DHT22;10134;50.952;6.930;2022-07-03T07:22:44;22.20;87.40
19945;DHT22;10134;50.952;6.930;2022-07-03T07:25:11;22.30;87.60
19945;DHT22;10134;50.952;6.930;2022-07-03T07:27:38;22.30;87.60
19945;DHT22;10134;50.952;6.930;2022-07-03T07:30:07;22.30;87.50
19945;DHT22;10134;50.952;6.930;2022-07-03T07:32:34;22.30;87.20
19945;DHT22;10134;50.952;6.930;2022-07-03T07:35:01;22.40;87.40
19945;DHT22;10134;50.952;6.930;2022-07-03T07:37:29;22.40;87.40
19945;DHT22;10134;50.952;6.930;2022-07-03T07:39:56;22.40;87.50
19945;DHT22;10134;50.952;6.930;2022-07-03T07:42:23;22.50;87.50
19945;DHT22;10134;50.952;6.930;2022-07-03T07:44:51;22.50;87.40
19945;DHT22;10134;50.952;6.930;2022-07-03T07:47:18;22.50;87.40
19945;DHT22;10134;50.952;6.930;2022-07-03T07:49:46;22.50;87.00
19945;DHT22;10134;50.952;6.930;2022-07-03T07:52:13;22.60;86.70
19945;DHT22;10134;50.952;6.930;2022-07-03T07:54:40;22.60;86.60
19945;DHT22;10134;50.952;6.930;2022-07-03T07:57:08;22.60;86.50
19945;DHT22;10134;50.952;6.930;2022-07-03T07:59:35;22.60;86.50
19945;DHT22;10134;50.952;6.930;2022-07-03T08:02:09;22.60;86.60
19945;DHT22;10134;50.952;6.930;2022-07-03T08:04:55;22.70;86.80
19945;DHT22;10134;50.952;6.930;2022-07-03T08:07:41;22.70;86.90
19945;DHT22;10134;50.952;6.930;2022-07-03T08:10:08;22.80;87.10
19945;DHT22;10134;50.952;6.930;2022-07-03T08:12:35;22.80;87.00
19945;DHT22;10134;50.952;6.930;2022-07-03T08:15:03;22.80;86.60
19945;DHT22;10134;50.952;6.930;2022-07-03T08:17:30;22.80;86.40
19945;DHT22;10134;50.952;6.930;2022-07-03T08:19:58;22.90;85.90
19945;DHT22;10134;50.952;6.930;2022-07-03T08:22:25;22.90;85.50
19945;DHT22;10134;50.952;6.930;2022-07-03T08:24:52;22.90;85.40
19945;DHT22;10134;50.952;6.930;2022-07-03T08:27:20;22.90;85.30
19945;DHT22;10134;50.952;6.930;2022-07-03T08:29:47;22.90;85.50
19945;DHT22;10134;50.952;6.930;2022-07-03T08:32:14;23.00;85.70
19945;DHT22;10134;50.952;6.930;2022-07-03T08:34:41;23.00;85.80
19945;DHT22;10134;50.952;6.930;2022-07-03T08:37:09;23.00;85.90
19945;DHT22;10134;50.952;6.930;2022-07-03T08:39:36;23.10;86.00
19945;DHT22;10134;50.952;6.930;2022-07-03T08:42:05;23.10;85.80
19945;DHT22;10134;50.952;6.930;2022-07-03T08:44:35;23.10;85.70
19945;DHT22;10134;50.952;6.930;2022-07-03T08:47:03;23.10;85.40
19945;DHT22;10134;50.952;6.930;2022-07-03T08:49:34;23.20;85.20
19945;DHT22;10134;50.952;6.930;2022-07-03T08:52:02;23.20;84.90
19945;DHT22;10134;50.952;6.930;2022-07-03T08:54:29;23.20;84.60
19945;DHT22;10134;50.952;6.930;2022-07-03T08:57:00;23.30;84.60
19945;DHT22;10134;50.952;6.930;2022-07-03T08:59:38;23.30;84.30
19945;DHT22;10134;50.952;6.930;2022-07-03T09:02:06;23.30;84.30
19945;DHT22;10134;50.952;6.930;2022-07-03T09:04:34;23.40;84.00
19945;DHT22;10134;50.952;6.930;2022-07-03T09:07:01;23.40;83.80
19945;DHT22;10134;50.952;6.930;2022-07-03T09:09:28;23.40;84.70
19945;DHT22;10134;50.952;6.930;2022-07-03T09:11:56;23.40;83.80
19945;DHT22;10134;50.952;6.930;2022-07-03T09:14:23;23.50;83.70
19945;DHT22;10134;50.952;6.930;2022-07-03T09:16:51;23.50;83.70
19945;DHT22;10134;50.952;6.930;2022-07-03T09:19:40;23.50;83.30
19945;DHT22;10134;50.952;6.930;2022-07-03T09:22:29;23.60;83.40
19945;DHT22;10134;50.952;6.930;2022-07-03T09:25:11;23.60;83.00
19945;DHT22;10134;50.952;6.930;2022-07-03T09:27:52;23.70;82.90
19945;DHT22;10134;50.952;6.930;2022-07-03T09:30:19;23.70;83.40
19945;DHT22;10134;50.952;6.930;2022-07-03T09:32:48;23.70;82.50
19945;DHT22;10134;50.952;6.930;2022-07-03T09:35:24;23.70;82.40
19945;DHT22;10134;50.952;6.930;2022-07-03T09:37:58;23.80;82.00
19945;DHT22;10134;50.952;6.930;2022-07-03T09:40:28;23.80;81.90
19945;DHT22;10134;50.952;6.930;2022-07-03T09:43:12;23.90;81.80
19945;DHT22;10134;50.952;6.930;2022-07-03T09:46:01;23.90;81.90
19945;DHT22;10134;50.952;6.930;2022-07-03T09:51:14;23.90;81.70
19945;DHT22;10134;50.952;6.930;2022-07-03T09:53:55;24.00;81.80
19945;DHT22;10134;50.952;6.930;2022-07-03T09:56:42;24.00;81.50
19945;DHT22;10134;50.952;6.930;2022-07-03T09:59:14;24.10;81.20
19945;DHT22;10134;50.952;6.930;2022-07-03T10:01:45;24.10;81.30
19945;DHT22;10134;50.952;6.930;2022-07-03T10:04:16;24.10;81.30
19945;DHT22;10134;50.952;6.930;2022-07-03T10:06:55;24.10;81.40
19945;DHT22;10134;50.952;6.930;2022-07-03T10:09:33;24.10;81.50
19945;DHT22;10134;50.952;6.930;2022-07-03T10:12:02;24.20;81.50
19945;DHT22;10134;50.952;6.930;2022-07-03T10:14:32;24.20;81.30
19945;DHT22;10134;50.952;6.930;2022-07-03T10:16:59;24.20;81.40
19945;DHT22;10134;50.952;6.930;2022-07-03T10:19:38;24.30;81.60
19945;DHT22;10134;50.952;6.930;2022-07-03T10:22:09;24.30;81.60
19945;DHT22;10134;50.952;6.930;2022-07-03T10:24:38;24.30;81.50
19945;DHT22;10134;50.952;6.930;2022-07-03T10:27:08;24.40;81.50
19945;DHT22;10134;50.952;6.930;2022-07-03T10:29:36;24.40;81.20
19945;DHT22;10134;50.952;6.930;2022-07-03T10:32:06;24.50;81.30
19945;DHT22;10134;50.952;6.930;2022-07-03T10:34:34;24.50;81.30
19945;DHT22;10134;50.952;6.930;2022-07-03T10:37:03;24.50;81.30
19945;DHT22;10134;50.952;6.930;2022-07-03T10:42:45;24.60;81.30
19945;DHT22;10134;50.952;6.930;2022-07-03T10:45:32;24.60;81.30
19945;DHT22;10134;50.952;6.930;2022-07-03T10:47:59;24.70;81.20
19945;DHT22;10134;50.952;6.930;2022-07-03T10:50:27;24.70;80.70
19945;DHT22;10134;50.952;6.930;2022-07-03T10:53:23;24.80;80.60
19945;DHT22;10134;50.952;6.930;2022-07-03T10:56:06;24.80;79.70
19945;DHT22;10134;50.952;6.930;2022-07-03T10:58:59;24.80;80.30
19945;DHT22;10134;50.952;6.930;2022-07-03T11:01:31;24.80;80.30
19945;DHT22;10134;50.952;6.930;2022-07-03T11:04:01;24.90;80.70
19945;DHT22;10134;50.952;6.930;2022-07-03T11:09:24;25.00;80.70
19945;DHT22;10134;50.952;6.930;2022-07-03T11:11:52;25.00;80.60
19945;DHT22;10134;50.952;6.930;2022-07-03T11:17:19;25.10;80.20
19945;DHT22;10134;50.952;6.930;2022-07-03T11:19:48;25.10;80.10
19945;DHT22;10134;50.952;6.930;2022-07-03T11:22:58;25.20;80.00
19945;DHT22;10134;50.952;6.930;2022-07-03T11:25:38;25.20;79.90
19945;DHT22;10134;50.952;6.930;2022-07-03T11:28:06;25.30;79.40
19945;DHT22;10134;50.952;6.930;2022-07-03T11:36:26;25.40;79.10
19945;DHT22;10134;50.952;6.930;2022-07-03T11:41:45;25.40;79.10
19945;DHT22;10134;50.952;6.930;2022-07-03T11:44:18;25.50;78.60
19945;DHT22;10134;50.952;6.930;2022-07-03T11:46:48;25.50;78.20
19945;DHT22;10134;50.952;6.930;2022-07-03T11:49:22;25.50;77.80
19945;DHT22;10134;50.952;6.930;2022-07-03T11:52:01;25.50;78.90
19945;DHT22;10134;50.952;6.930;2022-07-03T11:54:33;25.60;78.50
19945;DHT22;10134;50.952;6.930;2022-07-03T11:57:15;25.60;78.60
19945;DHT22;10134;50.952;6.930;2022-07-03T11:59:43;25.60;78.80
19945;DHT22;10134;50.952;6.930;2022-07-03T12:02:10;25.70;78.90
19945;DHT22;10134;50.952;6.930;2022-07-03T12:04:38;25.70;78.00
19945;DHT22;10134;50.952;6.930;2022-07-03T12:07:06;25.80;77.60
19945;DHT22;10134;50.952;6.930;2022-07-03T12:09:35;25.80;77.20
19945;DHT22;10134;50.952;6.930;2022-07-03T12:12:04;25.80;76.60
19945;DHT22;10134;50.952;6.930;2022-07-03T12:14:54;25.80;76.90
19945;DHT22;10134;50.952;6.930;2022-07-03T12:17:24;25.80;76.90
19945;DHT22;10134;50.952;6.930;2022-07-03T12:20:01;25.90;76.10
19945;DHT22;10134;50.952;6.930;2022-07-03T12:22:34;25.90;75.80
19945;DHT22;10134;50.952;6.930;2022-07-03T12:25:11;25.90;76.20
19945;DHT22;10134;50.952;6.930;2022-07-03T12:27:40;26.00;76.80
19945;DHT22;10134;50.952;6.930;2022-07-03T12:30:12;26.10;76.60
19945;DHT22;10134;50.952;6.930;2022-07-03T12:32:49;26.10;76.80
19945;DHT22;10134;50.952;6.930;2022-07-03T12:35:21;26.20;76.80
19945;DHT22;10134;50.952;6.930;2022-07-03T12:37:48;26.20;77.00
19945;DHT22;10134;50.952;6.930;2022-07-03T12:40:16;26.30;75.70
19945;DHT22;10134;50.952;6.930;2022-07-03T12:42:54;26.40;75.60
19945;DHT22;10134;50.952;6.930;2022-07-03T12:45:24;26.40;75.10
19945;DHT22;10134;50.952;6.930;2022-07-03T12:48:02;26.50;75.40
19945;DHT22;10134;50.952;6.930;2022-07-03T12:50:50;26.50;74.20
19945;DHT22;10134;50.952;6.930;2022-07-03T12:53:28;26.50;74.40
19945;DHT22;10134;50.952;6.930;2022-07-03T12:56:00;26.60;74.60
19945;DHT22;10134;50.952;6.930;2022-07-03T12:58:29;26.70;74.30
19945;DHT22;10134;50.952;6.930;2022-07-03T13:03:52;26.90;74.80
19945;DHT22;10134;50.952;6.930;2022-07-03T13:06:21;27.00;74.90
19945;DHT22;10134;50.952;6.930;2022-07-03T13:08:56;27.10;75.10
19945;DHT22;10134;50.952;6.930;2022-07-03T13:11:27;27.20;74.00
19945;DHT22;10134;50.952;6.930;2022-07-03T13:14:09;27.30;74.10
19945;DHT22;10134;50.952;6.930;2022-07-03T13:19:10;27.40;73.40
19945;DHT22;10134;50.952;6.930;2022-07-03T13:21:38;27.50;73.70
19945;DHT22;10134;50.952;6.930;2022-07-03T13:24:06;27.70;72.10
19945;DHT22;10134;50.952;6.930;2022-07-03T13:26:34;27.70;73.00
19945;DHT22;10134;50.952;6.930;2022-07-03T13:29:02;27.80;72.10
19945;DHT22;10134;50.952;6.930;2022-07-03T13:31:30;27.90;72.10
19945;DHT22;10134;50.952;6.930;2022-07-03T13:33:58;28.00;72.40
19945;DHT22;10134;50.952;6.930;2022-07-03T13:36:26;28.00;70.80
19945;DHT22;10134;50.952;6.930;2022-07-03T13:38:54;28.10;71.50
19945;DHT22;10134;50.952;6.930;2022-07-03T13:41:22;28.20;71.20
19945;DHT22;10134;50.952;6.930;2022-07-03T13:43:51;28.30;70.00
19945;DHT22;10134;50.952;6.930;2022-07-03T13:46:20;28.30;70.30
19945;DHT22;10134;50.952;6.930;2022-07-03T13:48:53;28.30;69.10
19945;DHT22;10134;50.952;6.930;2022-07-03T13:51:21;28.40;70.20
19945;DHT22;10134;50.952;6.930;2022-07-03T13:53:48;28.40;69.40
19945;DHT22;10134;50.952;6.930;2022-07-03T13:56:17;28.50;69.50
19945;DHT22;10134;50.952;6.930;2022-07-03T13:58:44;28.60;69.30
19945;DHT22;10134;50.952;6.930;2022-07-03T14:01:19;28.60;68.60
19945;DHT22;10134;50.952;6.930;2022-07-03T14:03:48;28.70;68.90
19945;DHT22;10134;50.952;6.930;2022-07-03T14:06:15;28.70;69.30
19945;DHT22;10134;50.952;6.930;2022-07-03T14:08:43;28.70;68.50
19945;DHT22;10134;50.952;6.930;2022-07-03T14:11:10;28.70;68.20
19945;DHT22;10134;50.952;6.930;2022-07-03T14:13:37;28.80;68.50
19945;DHT22;10134;50.952;6.930;2022-07-03T14:16:05;28.80;67.10
19945;DHT22;10134;50.952;6.930;2022-07-03T14:18:32;28.80;67.40
19945;DHT22;10134;50.952;6.930;2022-07-03T14:20:59;28.80;67.40
19945;DHT22;10134;50.952;6.930;2022-07-03T14:23:27;28.80;67.20
19945;DHT22;10134;50.952;6.930;2022-07-03T14:25:54;28.90;66.70
19945;DHT22;10134;50.952;6.930;2022-07-03T14:28:21;28.90;66.70
19945;DHT22;10134;50.952;6.930;2022-07-03T14:31:07;28.90;66.60
19945;DHT22;10134;50.952;6.930;2022-07-03T14:34:03;29.00;67.00
19945;DHT22;10134;50.952;6.930;2022-07-03T14:36:31;29.10;67.30
19945;DHT22;10134;50.952;6.930;2022-07-03T14:39:14;29.10;66.60
19945;DHT22;10134;50.952;6.930;2022-07-03T14:41:42;29.20;66.10
19945;DHT22;10134;50.952;6.930;2022-07-03T14:44:09;29.20;66.60
19945;DHT22;10134;50.952;6.930;2022-07-03T14:46:37;29.20;65.80
19945;DHT22;10134;50.952;6.930;2022-07-03T14:49:04;29.20;65.10
19945;DHT22;10134;50.952;6.930;2022-07-03T14:51:32;29.20;65.70
19945;DHT22;10134;50.952;6.930;2022-07-03T14:54:00;29.20;66.20
19945;DHT22;10134;50.952;6.930;2022-07-03T14:56:29;29.20;66.50
19945;DHT22;10134;50.952;6.930;2022-07-03T14:59:00;29.30;66.40
19945;DHT22;10134;50.952;6.930;2022-07-03T15:01:31;29.50;65.70
19945;DHT22;10134;50.952;6.930;2022-07-03T15:04:00;29.50;65.00
19945;DHT22;10134;50.952;6.930;2022-07-03T15:06:29;29.40;65.10
19945;DHT22;10134;50.952;6.930;2022-07-03T15:08:59;29.50;65.50
19945;DHT22;10134;50.952;6.930;2022-07-03T15:11:52;29.60;65.20
19945;DHT22;10134;50.952;6.930;2022-07-03T15:14:41;29.60;65.30
19945;DHT22;10134;50.952;6.930;2022-07-03T15:17:10;29.70;65.80
19945;DHT22;10134;50.952;6.930;2022-07-03T15:19:40;29.80;65.90
19945;DHT22;10134;50.952;6.930;2022-07-03T15:22:15;29.80;64.40
19945;DHT22;10134;50.952;6.930;2022-07-03T15:24:43;29.80;64.50
19945;DHT22;10134;50.952;6.930;2022-07-03T15:27:15;29.80;64.30
19945;DHT22;10134;50.952;6.930;2022-07-03T15:29:43;29.90;64.40
19945;DHT22;10134;50.952;6.930;2022-07-03T15:32:12;30.00;64.10
19945;DHT22;10134;50.952;6.930;2022-07-03T15:34:40;30.10;64.20
19945;DHT22;10134;50.952;6.930;2022-07-03T15:40:09;30.50;62.70
19945;DHT22;10134;50.952;6.930;2022-07-03T15:42:51;30.60;62.20
19945;DHT22;10134;50.952;6.930;2022-07-03T15:50:57;31.10;61.30
19945;DHT22;10134;50.952;6.930;2022-07-03T15:53:36;31.20;61.40
19945;DHT22;10134;50.952;6.930;2022-07-03T15:56:05;31.40;60.70
19945;DHT22;10134;50.952;6.930;2022-07-03T15:58:34;31.40;59.60
19945;DHT22;10134;50.952;6.930;2022-07-03T16:01:04;31.20;59.20
19945;DHT22;10134;50.952;6.930;2022-07-03T16:03:58;31.10;59.30
19945;DHT22;10134;50.952;6.930;2022-07-03T16:06:38;31.00;59.60
19945;DHT22;10134;50.952;6.930;2022-07-03T16:09:05;30.90;59.90
19945;DHT22;10134;50.952;6.930;2022-07-03T16:11:34;30.80;60.30
19945;DHT22;10134;50.952;6.930;2022-07-03T16:14:03;30.60;59.60
19945;DHT22;10134;50.952;6.930;2022-07-03T16:16:33;30.50;60.40
19945;DHT22;10134;50.952;6.930;2022-07-03T16:19:03;30.40;59.80
19945;DHT22;10134;50.952;6.930;2022-07-03T16:21:31;30.20;60.10
19945;DHT22;10134;50.952;6.930;2022-07-03T16:23:59;30.10;60.00
19945;DHT22;10134;50.952;6.930;2022-07-03T16:26:29;29.90;60.40
19945;DHT22;10134;50.952;6.930;2022-07-03T16:28:57;29.70;59.80
19945;DHT22;10134;50.952;6.930;2022-07-03T16:31:27;29.50;60.50
19945;DHT22;10134;50.952;6.930;2022-07-03T16:34:13;29.40;60.80
19945;DHT22;10134;50.952;6.930;2022-07-03T16:36:46;29.20;61.10
19945;DHT22;10134;50.952;6.930;2022-07-03T16:39:33;29.10;61.40
19945;DHT22;10134;50.952;6.930;2022-07-03T16:42:02;29.00;61.60
19945;DHT22;10134;50.952;6.930;2022-07-03T16:44:37;28.90;62.10
19945;DHT22;10134;50.952;6.930;2022-07-03T16:47:04;28.80;62.60
19945;DHT22;10134;50.952;6.930;2022-07-03T16:49:37;28.70;62.70
19945;DHT22;10134;50.952;6.930;2022-07-03T16:52:09;28.50;62.40
19945;DHT22;10134;50.952;6.930;2022-07-03T16:54:37;28.40;63.00
19945;DHT22;10134;50.952;6.930;2022-07-03T16:57:06;28.40;63.30
19945;DHT22;10134;50.952;6.930;2022-07-03T16:59:34;28.50;63.60
19945;DHT22;10134;50.952;6.930;2022-07-03T17:02:02;28.70;63.60
19945;DHT22;10134;50.952;6.930;2022-07-03T17:04:36;28.70;63.10